sensor_id;sensor_type;location;lat;lon;timestamp;temperature;humidity
10263;DHT22;5177;50.068;8.156;2023-02-11T00:00:52;2.40;99.90
10263;DHT22;5177;50.068;8.156;2023-02-11T00:03:18;2.40;99.90
10263;DHT22;5177;50.068;8.156;2023-02-11T00:05:43;2.40;99.90
10263;DHT22;5177;50.068;8.156;2023-02-11T00:08:09;2.40;99.90
10263;DHT22;5177;50.068;8.156;2023-02-11T00:10:34;2.40;99.90
10263;DHT22;5177;50.068;8.156;2023-02-11T00:13:00;2.40;99.90
10263;DHT22;5177;50.068;8.156;2023-02-11T00:15:25;2.40;99.90
10263;DHT22;5177;50.068;8.156;2023-02-11T00:17:50;2.40;99.90
10263;DHT22;5177;50.068;8.156;2023-02-11T00:20:16;2.40;99.90
10263;DHT22;5177;50.068;8.156;2023-02-11T00:22:41;2.50;99.90
10263;DHT22;5177;50.068;8.156;2023-02-11T00:25:07;2.50;99.90
10263;DHT22;5177;50.068;8.156;2023-02-11T00:27:33;2.50;99.90
10263;DHT22;5177;50.068;8.156;2023-02-11T00:29:58;2.50;99.90
10263;DHT22;5177;50.068;8.156;2023-02-11T00:32:26;2.50;99.90
10263;DHT22;5177;50.068;8.156;2023-02-11T00:34:52;2.50;99.90
10263;DHT22;5177;50.068;8.156;2023-02-11T00:37:19;2.50;99.90
10263;DHT22;5177;50.068;8.156;2023-02-11T00:39:45;2.50;99.90
10263;DHT22;5177;50.068;8.156;2023-02-11T00:42:13;2.50;99.90
10263;DHT22;5177;50.068;8.156;2023-02-11T00:44:38;2.50;99.90
10263;DHT22;5177;50.068;8.156;2023-02-11T00:47:04;2.50;99.90
10263;DHT22;5177;50.068;8.156;2023-02-11T00:49:29;2.50;99.90
10263;DHT22;5177;50.068;8.156;2023-02-11T00:51:55;2.50;99.90
10263;DHT22;5177;50.068;8.156;2023-02-11T00:54:20;2.60;99.90
10263;DHT22;5177;50.068;8.156;2023-02-11T00:56:46;2.60;99.90
10263;DHT22;5177;50.068;8.156;2023-02-11T00:59:11;2.60;99.90
10263;DHT22;5177;50.068;8.156;2023-02-11T01:01:37;2.60;99.90
10263;DHT22;5177;50.068;8.156;2023-02-11T01:04:02;2.60;99.90
10263;DHT22;5177;50.068;8.156;2023-02-11T01:06:28;2.60;99.90
10263;DHT22;5177;50.068;8.156;2023-02-11T01:08:53;2.50;99.90
10263;DHT22;5177;50.068;8.156;2023-02-11T01:11:19;2.60;99.90
10263;DHT22;5177;50.068;8.156;2023-02-11T01:13:45;2.40;99.90
10263;DHT22;5177;50.068;8.156;2023-02-11T01:16:11;2.70;99.90
10263;DHT22;5177;50.068;8.156;2023-02-11T01:18:37;2.60;99.90
10263;DHT22;5177;50.068;8.156;2023-02-11T01:21:02;2.70;99.90
10263;DHT22;5177;50.068;8.156;2023-02-11T01:23:28;2.70;99.90
10263;DHT22;5177;50.068;8.156;2023-02-11T01:25:53;2.80;99.90
10263;DHT22;5177;50.068;8.156;2023-02-11T01:28:25;2.70;99.90
10263;DHT22;5177;50.068;8.156;2023-02-11T01:30:51;2.70;99.90
10263;DHT22;5177;50.068;8.156;2023-02-11T01:33:17;2.80;99.90
10263;DHT22;5177;50.068;8.156;2023-02-11T01:35:43;2.60;99.90
10263;DHT22;5177;50.068;8.156;2023-02-11T01:38:18;2.60;99.90
10263;DHT22;5177;50.068;8.156;2023-02-11T01:40:51;2.60;99.90
10263;DHT22;5177;50.068;8.156;2023-02-11T01:43:17;2.70;99.90
10263;DHT22;5177;50.068;8.156;2023-02-11T01:48:12;2.70;99.90
10263;DHT22;5177;50.068;8.156;2023-02-11T01:50:38;2.60;99.90
10263;DHT22;5177;50.068;8.156;2023-02-11T01:53:04;2.60;99.90
10263;DHT22;5177;50.068;8.156;2023-02-11T01:55:48;2.60;99.90
10263;DHT22;5177;50.068;8.156;2023-02-11T01:58:33;2.70;99.90
10263;DHT22;5177;50.068;8.156;2023-02-11T02:01:01;2.80;99.90
10263;DHT22;5177;50.068;8.156;2023-02-11T02:03:27;2.70;99.90
10263;DHT22;5177;50.068;8.156;2023-02-11T02:06:00;2.80;99.90
10263;DHT22;5177;50.068;8.156;2023-02-11T02:08:35;2.70;99.90
10263;DHT22;5177;50.068;8.156;2023-02-11T02:11:03;2.70;99.90
10263;DHT22;5177;50.068;8.156;2023-02-11T02:13:30;2.60;99.90
10263;DHT22;5177;50.068;8.156;2023-02-11T02:15:57;2.70;99.90
10263;DHT22;5177;50.068;8.156;2023-02-11T02:21:02;2.60;99.90
10263;DHT22;5177;50.068;8.156;2023-02-11T02:23:56;2.50;99.90
10263;DHT22;5177;50.068;8.156;2023-02-11T02:26:31;2.50;99.90
10263;DHT22;5177;50.068;8.156;2023-02-11T02:37:19;2.50;99.90
10263;DHT22;5177;50.068;8.156;2023-02-11T02:39:46;2.50;99.90
10263;DHT22;5177;50.068;8.156;2023-02-11T02:42:12;2.60;99.90
10263;DHT22;5177;50.068;8.156;2023-02-11T02:44:38;2.50;99.90
10263;DHT22;5177;50.068;8.156;2023-02-11T02:47:04;2.60;99.90
10263;DHT22;5177;50.068;8.156;2023-02-11T02:49:29;2.60;99.90
10263;DHT22;5177;50.068;8.156;2023-02-11T02:55:21;2.50;99.90
10263;DHT22;5177;50.068;8.156;2023-02-11T02:57:47;2.60;99.90
10263;DHT22;5177;50.068;8.156;2023-02-11T03:00:23;2.60;99.90
10263;DHT22;5177;50.068;8.156;2023-02-11T03:05:36;2.60;99.90
10263;DHT22;5177;50.068;8.156;2023-02-11T03:08:09;2.60;99.90
10263;DHT22;5177;50.068;8.156;2023-02-11T03:10:38;2.60;99.90
10263;DHT22;5177;50.068;8.156;2023-02-11T03:13:04;2.60;99.90
10263;DHT22;5177;50.068;8.156;2023-02-11T03:15:31;2.60;99.90
10263;DHT22;5177;50.068;8.156;2023-02-11T03:17:58;2.60;99.90
10263;DHT22;5177;50.068;8.156;2023-02-11T03:20:24;2.60;99.90
10263;DHT22;5177;50.068;8.156;2023-02-11T03:22:52;2.60;99.90
10263;DHT22;5177;50.068;8.156;2023-02-11T03:25:19;2.60;99.90
10263;DHT22;5177;50.068;8.156;2023-02-11T03:27:51;2.60;99.90
10263;DHT22;5177;50.068;8.156;2023-02-11T03:30:20;2.60;99.90
10263;DHT22;5177;50.068;8.156;2023-02-11T03:32:56;2.60;99.90
10263;DHT22;5177;50.068;8.156;2023-02-11T03:35:26;2.60;99.90
10263;DHT22;5177;50.068;8.156;2023-02-11T03:37:56;2.60;99.90
10263;DHT22;5177;50.068;8.156;2023-02-11T03:40:24;2.60;99.90
10263;DHT22;5177;50.068;8.156;2023-02-11T03:42:56;2.60;99.90
10263;DHT22;5177;50.068;8.156;2023-02-11T03:45:22;2.60;99.90
10263;DHT22;5177;50.068;8.156;2023-02-11T03:48:02;2.60;99.90
10263;DHT22;5177;50.068;8.156;2023-02-11T03:50:29;2.60;99.90
10263;DHT22;5177;50.068;8.156;2023-02-11T03:52:55;2.60;99.90
10263;DHT22;5177;50.068;8.156;2023-02-11T03:55:21;2.50;99.90
10263;DHT22;5177;50.068;8.156;2023-02-11T03:57:47;2.50;99.90
10263;DHT22;5177;50.068;8.156;2023-02-11T04:00:13;2.50;99.90
10263;DHT22;5177;50.068;8.156;2023-02-11T04:02:39;2.60;99.90
10263;DHT22;5177;50.068;8.156;2023-02-11T04:05:05;2.60;99.90
10263;DHT22;5177;50.068;8.156;2023-02-11T04:07:31;2.50;99.90
10263;DHT22;5177;50.068;8.156;2023-02-11T04:09:57;2.50;99.90
10263;DHT22;5177;50.068;8.156;2023-02-11T04:12:22;2.40;99.90
10263;DHT22;5177;50.068;8.156;2023-02-11T04:14:48;2.50;99.90
10263;DHT22;5177;50.068;8.156;2023-02-11T04:17:13;2.40;99.90
10263;DHT22;5177;50.068;8.156;2023-02-11T04:19:39;2.40;99.90
10263;DHT22;5177;50.068;8.156;2023-02-11T04:22:04;2.30;99.90
10263;DHT22;5177;50.068;8.156;2023-02-11T04:24:30;2.30;99.90
10263;DHT22;5177;50.068;8.156;2023-02-11T04:26:55;2.20;99.90
10263;DHT22;5177;50.068;8.156;2023-02-11T04:29:21;2.20;99.90
10263;DHT22;5177;50.068;8.156;2023-02-11T04:31:47;2.20;99.90
10263;DHT22;5177;50.068;8.156;2023-02-11T04:34:13;2.20;99.90
10263;DHT22;5177;50.068;8.156;2023-02-11T04:36:38;2.20;99.90
10263;DHT22;5177;50.068;8.156;2023-02-11T04:39:04;2.20;99.90
10263;DHT22;5177;50.068;8.156;2023-02-11T04:41:29;2.20;99.90
10263;DHT22;5177;50.068;8.156;2023-02-11T04:43:55;2.20;99.90
10263;DHT22;5177;50.068;8.156;2023-02-11T04:46:20;2.10;99.90
10263;DHT22;5177;50.068;8.156;2023-02-11T04:48:46;2.20;99.90
10263;DHT22;5177;50.068;8.156;2023-02-11T04:51:11;2.10;99.90
10263;DHT22;5177;50.068;8.156;2023-02-11T04:53:37;2.30;99.90
10263;DHT22;5177;50.068;8.156;2023-02-11T04:56:02;2.20;99.90
10263;DHT22;5177;50.068;8.156;2023-02-11T04:58:28;2.20;99.90
10263;DHT22;5177;50.068;8.156;2023-02-11T05:00:53;2.10;99.90
10263;DHT22;5177;50.068;8.156;2023-02-11T05:03:19;2.10;99.90
10263;DHT22;5177;50.068;8.156;2023-02-11T05:05:45;2.10;99.90
10263;DHT22;5177;50.068;8.156;2023-02-11T05:08:10;2.10;99.90
10263;DHT22;5177;50.068;8.156;2023-02-11T05:10:36;2.10;99.90
10263;DHT22;5177;50.068;8.156;2023-02-11T05:13:01;2.10;99.90
10263;DHT22;5177;50.068;8.156;2023-02-11T05:15:27;2.10;99.90
10263;DHT22;5177;50.068;8.156;2023-02-11T05:17:53;2.10;99.90
10263;DHT22;5177;50.068;8.156;2023-02-11T05:20:18;2.00;99.90
10263;DHT22;5177;50.068;8.156;2023-02-11T05:22:44;2.10;99.90
10263;DHT22;5177;50.068;8.156;2023-02-11T05:25:09;2.10;99.90
10263;DHT22;5177;50.068;8.156;2023-02-11T05:27:35;2.00;99.90
10263;DHT22;5177;50.068;8.156;2023-02-11T05:30:00;2.00;99.90
10263;DHT22;5177;50.068;8.156;2023-02-11T05:32:26;2.00;99.90
10263;DHT22;5177;50.068;8.156;2023-02-11T05:34:51;2.00;99.90
10263;DHT22;5177;50.068;8.156;2023-02-11T05:37:17;1.90;99.90
10263;DHT22;5177;50.068;8.156;2023-02-11T05:39:42;1.90;99.90
10263;DHT22;5177;50.068;8.156;2023-02-11T05:42:08;1.90;99.90
10263;DHT22;5177;50.068;8.156;2023-02-11T05:44:33;1.90;99.90
10263;DHT22;5177;50.068;8.156;2023-02-11T05:46:59;1.90;99.90
10263;DHT22;5177;50.068;8.156;2023-02-11T05:49:24;1.90;99.90
10263;DHT22;5177;50.068;8.156;2023-02-11T05:51:50;1.90;99.90
10263;DHT22;5177;50.068;8.156;2023-02-11T05:54:15;1.90;99.90
10263;DHT22;5177;50.068;8.156;2023-02-11T05:56:41;1.90;99.90
10263;DHT22;5177;50.068;8.156;2023-02-11T05:59:06;1.90;99.90
10263;DHT22;5177;50.068;8.156;2023-02-11T06:01:32;1.90;99.90
10263;DHT22;5177;50.068;8.156;2023-02-11T06:03:57;2.00;99.90
10263;DHT22;5177;50.068;8.156;2023-02-11T06:06:23;1.90;99.90
10263;DHT22;5177;50.068;8.156;2023-02-11T06:08:49;2.00;99.90
10263;DHT22;5177;50.068;8.156;2023-02-11T06:11:15;1.90;99.90
10263;DHT22;5177;50.068;8.156;2023-02-11T06:13:40;2.00;99.90
10263;DHT22;5177;50.068;8.156;2023-02-11T06:16:06;2.00;99.90
10263;DHT22;5177;50.068;8.156;2023-02-11T06:18:31;2.00;99.90
10263;DHT22;5177;50.068;8.156;2023-02-11T06:20:58;2.00;99.90
10263;DHT22;5177;50.068;8.156;2023-02-11T06:23:23;2.00;99.90
10263;DHT22;5177;50.068;8.156;2023-02-11T06:25:49;1.90;99.90
10263;DHT22;5177;50.068;8.156;2023-02-11T06:28:14;1.90;99.90
10263;DHT22;5177;50.068;8.156;2023-02-11T06:30:40;1.90;99.90
10263;DHT22;5177;50.068;8.156;2023-02-11T06:33:05;1.90;99.90
10263;DHT22;5177;50.068;8.156;2023-02-11T06:35:31;1.90;99.90
10263;DHT22;5177;50.068;8.156;2023-02-11T06:37:58;1.90;99.90
10263;DHT22;5177;50.068;8.156;2023-02-11T06:40:23;1.90;99.90
10263;DHT22;5177;50.068;8.156;2023-02-11T06:42:49;1.90;99.90
10263;DHT22;5177;50.068;8.156;2023-02-11T06:45:14;1.90;99.90
10263;DHT22;5177;50.068;8.156;2023-02-11T06:47:40;2.00;99.90
10263;DHT22;5177;50.068;8.156;2023-02-11T06:50:06;1.90;99.90
10263;DHT22;5177;50.068;8.156;2023-02-11T06:52:32;2.00;99.90
10263;DHT22;5177;50.068;8.156;2023-02-11T06:54:58;1.90;99.90
10263;DHT22;5177;50.068;8.156;2023-02-11T06:57:23;1.90;99.90
10263;DHT22;5177;50.068;8.156;2023-02-11T06:59:49;1.90;99.90
10263;DHT22;5177;50.068;8.156;2023-02-11T07:02:14;2.00;99.90
10263;DHT22;5177;50.068;8.156;2023-02-11T07:04:40;2.00;99.90
10263;DHT22;5177;50.068;8.156;2023-02-11T07:07:05;2.00;99.90
10263;DHT22;5177;50.068;8.156;2023-02-11T07:09:31;2.00;99.90
10263;DHT22;5177;50.068;8.156;2023-02-11T07:11:56;2.00;99.90
10263;DHT22;5177;50.068;8.156;2023-02-11T07:14:22;2.00;99.90
10263;DHT22;5177;50.068;8.156;2023-02-11T07:16:47;1.90;99.90
10263;DHT22;5177;50.068;8.156;2023-02-11T07:19:13;1.90;99.90
10263;DHT22;5177;50.068;8.156;2023-02-11T07:21:39;1.90;99.90
10263;DHT22;5177;50.068;8.156;2023-02-11T07:24:08;1.90;99.90
10263;DHT22;5177;50.068;8.156;2023-02-11T07:26:33;1.90;99.90
10263;DHT22;5177;50.068;8.156;2023-02-11T07:28:59;1.90;99.90
10263;DHT22;5177;50.068;8.156;2023-02-11T07:31:25;2.00;99.90
10263;DHT22;5177;50.068;8.156;2023-02-11T07:33:52;1.90;99.90
10263;DHT22;5177;50.068;8.156;2023-02-11T07:36:17;2.00;99.90
10263;DHT22;5177;50.068;8.156;2023-02-11T07:38:43;2.00;99.90
10263;DHT22;5177;50.068;8.156;2023-02-11T07:41:10;2.00;99.90
10263;DHT22;5177;50.068;8.156;2023-02-11T07:43:35;2.10;99.90
10263;DHT22;5177;50.068;8.156;2023-02-11T07:46:02;2.10;99.90
10263;DHT22;5177;50.068;8.156;2023-02-11T07:48:28;2.10;99.90
10263;DHT22;5177;50.068;8.156;2023-02-11T07:50:54;2.20;99.90
10263;DHT22;5177;50.068;8.156;2023-02-11T07:53:19;2.20;99.90
10263;DHT22;5177;50.068;8.156;2023-02-11T07:55:44;2.30;99.90
10263;DHT22;5177;50.068;8.156;2023-02-11T07:58:10;2.40;99.90
10263;DHT22;5177;50.068;8.156;2023-02-11T08:00:36;2.40;99.90
10263;DHT22;5177;50.068;8.156;2023-02-11T08:03:01;2.40;99.90
10263;DHT22;5177;50.068;8.156;2023-02-11T08:05:28;2.40;99.90
10263;DHT22;5177;50.068;8.156;2023-02-11T08:07:54;2.50;99.90
10263;DHT22;5177;50.068;8.156;2023-02-11T08:10:20;2.50;99.90
10263;DHT22;5177;50.068;8.156;2023-02-11T08:12:45;2.50;99.90
10263;DHT22;5177;50.068;8.156;2023-02-11T08:15:11;2.50;99.90
10263;DHT22;5177;50.068;8.156;2023-02-11T08:17:36;2.50;99.90
10263;DHT22;5177;50.068;8.156;2023-02-11T08:20:03;2.60;99.90
10263;DHT22;5177;50.068;8.156;2023-02-11T08:22:30;2.70;99.90
10263;DHT22;5177;50.068;8.156;2023-02-11T08:24:55;2.80;99.90
10263;DHT22;5177;50.068;8.156;2023-02-11T08:27:22;2.80;99.90
10263;DHT22;5177;50.068;8.156;2023-02-11T08:29:48;2.90;99.90
10263;DHT22;5177;50.068;8.156;2023-02-11T08:32:13;2.80;99.90
10263;DHT22;5177;50.068;8.156;2023-02-11T08:34:39;2.90;99.90
10263;DHT22;5177;50.068;8.156;2023-02-11T08:37:04;2.90;99.90
10263;DHT22;5177;50.068;8.156;2023-02-11T08:39:30;3.00;99.90
10263;DHT22;5177;50.068;8.156;2023-02-11T08:41:55;3.20;99.90
10263;DHT22;5177;50.068;8.156;2023-02-11T08:44:21;3.20;99.90
10263;DHT22;5177;50.068;8.156;2023-02-11T08:46:47;3.30;99.90
10263;DHT22;5177;50.068;8.156;2023-02-11T08:49:13;3.40;99.90
10263;DHT22;5177;50.068;8.156;2023-02-11T08:51:39;3.40;99.90
10263;DHT22;5177;50.068;8.156;2023-02-11T08:54:04;3.50;99.90
10263;DHT22;5177;50.068;8.156;2023-02-11T08:56:33;3.70;99.90
10263;DHT22;5177;50.068;8.156;2023-02-11T08:58:59;4.00;99.90
10263;DHT22;5177;50.068;8.156;2023-02-11T09:01:29;4.00;99.90
10263;DHT22;5177;50.068;8.156;2023-02-11T09:03:55;4.20;99.90
10263;DHT22;5177;50.068;8.156;2023-02-11T09:06:21;4.60;99.90
10263;DHT22;5177;50.068;8.156;2023-02-11T09:08:48;4.80;99.90
10263;DHT22;5177;50.068;8.156;2023-02-11T09:11:15;5.00;99.90
10263;DHT22;5177;50.068;8.156;2023-02-11T09:13:41;5.30;99.90
10263;DHT22;5177;50.068;8.156;2023-02-11T09:16:07;5.40;99.90
10263;DHT22;5177;50.068;8.156;2023-02-11T09:18:33;5.60;99.90
10263;DHT22;5177;50.068;8.156;2023-02-11T09:21:02;5.70;99.90
10263;DHT22;5177;50.068;8.156;2023-02-11T09:23:28;5.70;99.90
10263;DHT22;5177;50.068;8.156;2023-02-11T09:25:54;5.80;99.90
10263;DHT22;5177;50.068;8.156;2023-02-11T09:28:19;5.90;99.90
10263;DHT22;5177;50.068;8.156;2023-02-11T09:30:45;6.00;99.90
10263;DHT22;5177;50.068;8.156;2023-02-11T09:33:10;6.20;99.90
10263;DHT22;5177;50.068;8.156;2023-02-11T09:35:36;6.30;99.90
10263;DHT22;5177;50.068;8.156;2023-02-11T09:38:01;6.40;99.90
10263;DHT22;5177;50.068;8.156;2023-02-11T09:40:27;6.50;99.90
10263;DHT22;5177;50.068;8.156;2023-02-11T09:42:56;6.50;99.90
10263;DHT22;5177;50.068;8.156;2023-02-11T09:45:26;6.40;99.90
10263;DHT22;5177;50.068;8.156;2023-02-11T09:50:21;6.40;99.90
10263;DHT22;5177;50.068;8.156;2023-02-11T09:52:59;6.50;99.90
10263;DHT22;5177;50.068;8.156;2023-02-11T09:55:30;6.50;99.90
10263;DHT22;5177;50.068;8.156;2023-02-11T09:58:03;6.70;99.90
10263;DHT22;5177;50.068;8.156;2023-02-11T10:00:50;6.70;99.90
10263;DHT22;5177;50.068;8.156;2023-02-11T10:05:47;6.70;99.90
10263;DHT22;5177;50.068;8.156;2023-02-11T10:11:05;6.70;99.90
10263;DHT22;5177;50.068;8.156;2023-02-11T10:16:40;6.80;99.90
10263;DHT22;5177;50.068;8.156;2023-02-11T10:24:11;7.10;99.90
10263;DHT22;5177;50.068;8.156;2023-02-11T10:26:37;7.10;99.90
10263;DHT22;5177;50.068;8.156;2023-02-11T10:29:09;7.00;99.90
10263;DHT22;5177;50.068;8.156;2023-02-11T10:31:37;7.00;99.90
10263;DHT22;5177;50.068;8.156;2023-02-11T10:34:05;7.10;99.90
10263;DHT22;5177;50.068;8.156;2023-02-11T10:36:35;7.10;99.90
10263;DHT22;5177;50.068;8.156;2023-02-11T10:39:08;7.10;99.90
10263;DHT22;5177;50.068;8.156;2023-02-11T10:41:35;7.10;99.90
10263;DHT22;5177;50.068;8.156;2023-02-11T10:44:04;7.30;99.90
10263;DHT22;5177;50.068;8.156;2023-02-11T10:46:31;7.30;99.90
10263;DHT22;5177;50.068;8.156;2023-02-11T10:48:57;7.40;99.90
10263;DHT22;5177;50.068;8.156;2023-02-11T10:51:30;7.50;99.90
10263;DHT22;5177;50.068;8.156;2023-02-11T10:56:44;7.80;99.90
10263;DHT22;5177;50.068;8.156;2023-02-11T10:59:15;7.80;99.90
10263;DHT22;5177;50.068;8.156;2023-02-11T11:01:49;7.80;99.90
10263;DHT22;5177;50.068;8.156;2023-02-11T11:04:35;7.70;99.90
10263;DHT22;5177;50.068;8.156;2023-02-11T11:07:18;7.60;99.90
10263;DHT22;5177;50.068;8.156;2023-02-11T11:09:48;7.50;99.90
10263;DHT22;5177;50.068;8.156;2023-02-11T11:12:24;7.50;99.90
10263;DHT22;5177;50.068;8.156;2023-02-11T11:14:53;7.50;99.90
10263;DHT22;5177;50.068;8.156;2023-02-11T11:17:19;7.70;99.90
10263;DHT22;5177;50.068;8.156;2023-02-11T11:19:44;7.80;99.90
10263;DHT22;5177;50.068;8.156;2023-02-11T11:22:17;7.80;99.90
10263;DHT22;5177;50.068;8.156;2023-02-11T11:24:44;7.90;99.90
10263;DHT22;5177;50.068;8.156;2023-02-11T11:27:17;7.90;99.90
10263;DHT22;5177;50.068;8.156;2023-02-11T11:29:52;7.90;99.90
10263;DHT22;5177;50.068;8.156;2023-02-11T11:32:26;7.90;99.90
10263;DHT22;5177;50.068;8.156;2023-02-11T11:34:55;7.90;99.90
10263;DHT22;5177;50.068;8.156;2023-02-11T11:37:28;7.90;99.90
10263;DHT22;5177;50.068;8.156;2023-02-11T11:42:30;8.10;99.90
10263;DHT22;5177;50.068;8.156;2023-02-11T11:45:01;8.40;99.90
10263;DHT22;5177;50.068;8.156;2023-02-11T11:53:03;8.40;99.90
10263;DHT22;5177;50.068;8.156;2023-02-11T11:55:34;8.30;99.90
10263;DHT22;5177;50.068;8.156;2023-02-11T11:58:03;8.20;99.90
10263;DHT22;5177;50.068;8.156;2023-02-11T12:00:37;8.20;99.90
10263;DHT22;5177;50.068;8.156;2023-02-11T12:16:34;8.20;99.90
10263;DHT22;5177;50.068;8.156;2023-02-11T12:27:13;8.50;99.90
10263;DHT22;5177;50.068;8.156;2023-02-11T12:35:37;8.50;99.90
10263;DHT22;5177;50.068;8.156;2023-02-11T12:38:48;8.50;99.90
10263;DHT22;5177;50.068;8.156;2023-02-11T12:41:01;8.50;99.90
10263;DHT22;5177;50.068;8.156;2023-02-11T12:43:35;8.50;99.90
10263;DHT22;5177;50.068;8.156;2023-02-11T12:51:30;8.40;99.90
10263;DHT22;5177;50.068;8.156;2023-02-11T12:59:32;8.30;99.90
10263;DHT22;5177;50.068;8.156;2023-02-11T13:01:55;8.30;99.90
10263;DHT22;5177;50.068;8.156;2023-02-11T13:04:26;8.40;99.90
10263;DHT22;5177;50.068;8.156;2023-02-11T13:06:55;8.40;99.90
10263;DHT22;5177;50.068;8.156;2023-02-11T13:09:23;8.50;99.90
10263;DHT22;5177;50.068;8.156;2023-02-11T13:11:52;8.60;99.90
10263;DHT22;5177;50.068;8.156;2023-02-11T13:16:47;8.70;99.90
10263;DHT22;5177;50.068;8.156;2023-02-11T13:21:51;8.70;99.90
10263;DHT22;5177;50.068;8.156;2023-02-11T13:26:51;8.70;99.90
10263;DHT22;5177;50.068;8.156;2023-02-11T13:32:04;8.70;99.90
10263;DHT22;5177;50.068;8.156;2023-02-11T13:37:04;8.70;99.90
10263;DHT22;5177;50.068;8.156;2023-02-11T13:39:31;8.70;99.90
10263;DHT22;5177;50.068;8.156;2023-02-11T13:42:03;8.70;99.90
10263;DHT22;5177;50.068;8.156;2023-02-11T13:44:28;8.60;99.90
10263;DHT22;5177;50.068;8.156;2023-02-11T13:47:01;8.60;99.90
10263;DHT22;5177;50.068;8.156;2023-02-11T13:49:36;8.50;99.90
10263;DHT22;5177;50.068;8.156;2023-02-11T13:52:15;8.50;99.90
10263;DHT22;5177;50.068;8.156;2023-02-11T13:54:45;8.50;99.90
10263;DHT22;5177;50.068;8.156;2023-02-11T13:59:48;8.50;99.90
10263;DHT22;5177;50.068;8.156;2023-02-11T14:02:22;8.50;99.90
10263;DHT22;5177;50.068;8.156;2023-02-11T14:10:55;8.60;99.90
10263;DHT22;5177;50.068;8.156;2023-02-11T14:13:27;8.50;99.90
10263;DHT22;5177;50.068;8.156;2023-02-11T14:16:03;8.50;99.90
10263;DHT22;5177;50.068;8.156;2023-02-11T14:23:37;8.50;99.90
10263;DHT22;5177;50.068;8.156;2023-02-11T14:26:26;8.50;99.90
10263;DHT22;5177;50.068;8.156;2023-02-11T14:28:58;8.40;99.90
10263;DHT22;5177;50.068;8.156;2023-02-11T14:31:37;8.50;99.90
10263;DHT22;5177;50.068;8.156;2023-02-11T14:36:48;8.40;99.90
10263;DHT22;5177;50.068;8.156;2023-02-11T14:39:28;8.40;99.90
10263;DHT22;5177;50.068;8.156;2023-02-11T14:41:56;8.40;99.90
10263;DHT22;5177;50.068;8.156;2023-02-11T14:44:26;8.40;99.90
10263;DHT22;5177;50.068;8.156;2023-02-11T14:46:52;8.40;99.90
10263;DHT22;5177;50.068;8.156;2023-02-11T14:51:46;8.30;99.90
10263;DHT22;5177;50.068;8.156;2023-02-11T14:54:16;8.40;99.90
10263;DHT22;5177;50.068;8.156;2023-02-11T14:56:42;8.40;99.90
10263;DHT22;5177;50.068;8.156;2023-02-11T14:59:21;8.30;99.90
10263;DHT22;5177;50.068;8.156;2023-02-11T15:01:48;8.30;99.90
10263;DHT22;5177;50.068;8.156;2023-02-11T15:04:24;8.30;99.90
10263;DHT22;5177;50.068;8.156;2023-02-11T15:06:50;8.30;99.90
10263;DHT22;5177;50.068;8.156;2023-02-11T15:09:17;8.30;99.90
10263;DHT22;5177;50.068;8.156;2023-02-11T15:11:44;8.30;99.90
10263;DHT22;5177;50.068;8.156;2023-02-11T15:14:15;8.30;99.90
10263;DHT22;5177;50.068;8.156;2023-02-11T15:16:42;8.30;99.90
10263;DHT22;5177;50.068;8.156;2023-02-11T15:19:16;8.30;99.90
10263;DHT22;5177;50.068;8.156;2023-02-11T15:21:44;8.20;99.90
10263;DHT22;5177;50.068;8.156;2023-02-11T15:24:19;8.20;99.90
10263;DHT22;5177;50.068;8.156;2023-02-11T15:27:02;8.30;99.90
10263;DHT22;5177;50.068;8.156;2023-02-11T15:29:33;8.30;99.90
10263;DHT22;5177;50.068;8.156;2023-02-11T15:32:32;8.30;99.90
10263;DHT22;5177;50.068;8.156;2023-02-11T15:34:52;8.30;99.90
10263;DHT22;5177;50.068;8.156;2023-02-11T15:37:22;8.20;99.90
10263;DHT22;5177;50.068;8.156;2023-02-11T15:39:49;8.30;99.90
10263;DHT22;5177;50.068;8.156;2023-02-11T15:42:15;8.30;99.90
10263;DHT22;5177;50.068;8.156;2023-02-11T15:44:41;8.20;99.90
10263;DHT22;5177;50.068;8.156;2023-02-11T15:47:10;8.20;99.90
10263;DHT22;5177;50.068;8.156;2023-02-11T15:49:36;8.20;99.90
10263;DHT22;5177;50.068;8.156;2023-02-11T15:52:01;8.20;99.90
10263;DHT22;5177;50.068;8.156;2023-02-11T15:54:27;8.20;99.90
10263;DHT22;5177;50.068;8.156;2023-02-11T15:56:58;8.20;99.90
10263;DHT22;5177;50.068;8.156;2023-02-11T15:59:32;8.10;99.90
10263;DHT22;5177;50.068;8.156;2023-02-11T16:04:31;8.10;99.90
10263;DHT22;5177;50.068;8.156;2023-02-11T16:06:57;8.10;99.90
10263;DHT22;5177;50.068;8.156;2023-02-11T16:09:24;8.10;99.90
10263;DHT22;5177;50.068;8.156;2023-02-11T16:14:29;8.00;99.90
10263;DHT22;5177;50.068;8.156;2023-02-11T16:19:23;8.00;99.90
10263;DHT22;5177;50.068;8.156;2023-02-11T16:21:50;8.00;99.90
10263;DHT22;5177;50.068;8.156;2023-02-11T16:24:16;8.00;99.90
10263;DHT22;5177;50.068;8.156;2023-02-11T16:26:45;8.00;99.90
10263;DHT22;5177;50.068;8.156;2023-02-11T16:29:12;7.90;99.90
10263;DHT22;5177;50.068;8.156;2023-02-11T16:31:40;7.90;99.90
10263;DHT22;5177;50.068;8.156;2023-02-11T16:34:19;7.90;99.90
10263;DHT22;5177;50.068;8.156;2023-02-11T16:36:45;7.90;99.90
10263;DHT22;5177;50.068;8.156;2023-02-11T16:39:11;7.90;99.90
10263;DHT22;5177;50.068;8.156;2023-02-11T16:41:37;7.90;99.90
10263;DHT22;5177;50.068;8.156;2023-02-11T16:44:03;7.90;99.90
10263;DHT22;5177;50.068;8.156;2023-02-11T16:46:31;7.90;99.90
10263;DHT22;5177;50.068;8.156;2023-02-11T16:48:57;7.80;99.90
10263;DHT22;5177;50.068;8.156;2023-02-11T16:51:27;7.80;99.90
10263;DHT22;5177;50.068;8.156;2023-02-11T16:53:53;7.80;99.90
10263;DHT22;5177;50.068;8.156;2023-02-11T16:56:20;7.80;99.90
10263;DHT22;5177;50.068;8.156;2023-02-11T16:58:46;7.70;99.90
10263;DHT22;5177;50.068;8.156;2023-02-11T17:01:12;7.80;99.90
10263;DHT22;5177;50.068;8.156;2023-02-11T17:03:37;7.80;99.90
10263;DHT22;5177;50.068;8.156;2023-02-11T17:06:06;7.80;99.90
10263;DHT22;5177;50.068;8.156;2023-02-11T17:08:32;7.70;99.90
10263;DHT22;5177;50.068;8.156;2023-02-11T17:11:00;7.60;99.90
10263;DHT22;5177;50.068;8.156;2023-02-11T17:13:27;7.70;99.90
10263;DHT22;5177;50.068;8.156;2023-02-11T17:15:52;7.70;99.90
10263;DHT22;5177;50.068;8.156;2023-02-11T17:18:20;7.70;99.90
10263;DHT22;5177;50.068;8.156;2023-02-11T17:20:45;7.70;99.90
10263;DHT22;5177;50.068;8.156;2023-02-11T17:23:12;7.60;99.90
10263;DHT22;5177;50.068;8.156;2023-02-11T17:25:39;7.70;99.90
10263;DHT22;5177;50.068;8.156;2023-02-11T17:28:07;7.60;99.90
10263;DHT22;5177;50.068;8.156;2023-02-11T17:30:37;7.60;99.90
10263;DHT22;5177;50.068;8.156;2023-02-11T17:33:05;7.50;99.90
10263;DHT22;5177;50.068;8.156;2023-02-11T17:35:32;7.50;99.90
10263;DHT22;5177;50.068;8.156;2023-02-11T17:37:59;7.50;99.90
10263;DHT22;5177;50.068;8.156;2023-02-11T17:40:25;7.50;99.90
10263;DHT22;5177;50.068;8.156;2023-02-11T17:42:52;7.50;99.90
10263;DHT22;5177;50.068;8.156;2023-02-11T17:45:18;7.50;99.90
10263;DHT22;5177;50.068;8.156;2023-02-11T17:47:43;7.50;99.90
10263;DHT22;5177;50.068;8.156;2023-02-11T17:50:09;7.50;99.90
10263;DHT22;5177;50.068;8.156;2023-02-11T17:52:35;7.50;99.90
10263;DHT22;5177;50.068;8.156;2023-02-11T17:55:02;7.50;99.90
10263;DHT22;5177;50.068;8.156;2023-02-11T17:57:27;7.50;99.90
10263;DHT22;5177;50.068;8.156;2023-02-11T17:59:53;7.50;99.90
10263;DHT22;5177;50.068;8.156;2023-02-11T18:02:18;7.50;99.90
10263;DHT22;5177;50.068;8.156;2023-02-11T18:04:44;7.50;99.90
10263;DHT22;5177;50.068;8.156;2023-02-11T18:07:10;7.60;99.90
10263;DHT22;5177;50.068;8.156;2023-02-11T18:09:36;7.50;99.90